Time;durP1;ratioP1;P1;durP2;ratioP2;P2;SDS_P1;SDS_P2;PMS_P1;PMS_P2;Temp;Humidity;BMP_temperature;BMP_pressure;BME280_temperature;BME280_humidity;BME280_pressure;Samples;Min_cycle;Max_cycle;Signal;HPM_P1;HPM_P2
2023/11/25 00:01:19;;;;;;;19.20;1.88;;;;;;;9.14;64.38;101542.53;5009317;28;20115;-46
2023/11/25 00:03:45;;;;;;;16.25;1.88;;;;;;;8.87;65.53;101542.56;5010015;28;20121;-45
2023/11/25 00:06:10;;;;;;;15.65;2.10;;;;;;;9.16;64.24;101538.25;5009195;28;20037;-51
2023/11/25 00:08:36;;;;;;;17.75;2.38;;;;;;;8.95;65.31;101528.09;5012668;28;20515;-48
2023/11/25 00:11:01;;;;;;;16.08;1.98;;;;;;;8.95;65.44;101537.63;5012005;28;20052;-47
2023/11/25 00:13:26;;;;;;;16.05;2.00;;;;;;;9.04;64.79;101522.28;5012974;28;20126;-46
2023/11/25 00:15:54;;;;;;;10.20;1.40;;;;;;;9.09;64.32;101533.69;5013392;28;20034;-45
2023/11/25 00:18:19;;;;;;;14.40;2.13;;;;;;;9.02;64.66;101536.09;5013284;28;20038;-48
2023/11/25 00:20:46;;;;;;;15.65;2.03;;;;;;;8.97;64.27;101528.13;5013910;28;20558;-50
2023/11/25 00:23:12;;;;;;;13.40;1.85;;;;;;;8.94;64.47;101531.53;5012558;28;20491;-48
2023/11/25 00:25:37;;;;;;;21.05;2.10;;;;;;;8.71;65.58;101527.34;5013338;28;20037;-43
2023/11/25 00:28:04;;;;;;;18.17;2.40;;;;;;;8.68;66.17;101527.25;5013960;28;20085;-45
2023/11/25 00:30:30;;;;;;;19.90;2.63;;;;;;;8.73;66.24;101524.78;5012803;28;20030;-46
2023/11/25 00:32:55;;;;;;;23.25;2.95;;;;;;;8.72;66.07;101526.50;5013110;28;20402;-45
2023/11/25 00:35:20;;;;;;;16.48;2.30;;;;;;;8.93;65.63;101521.97;5012253;28;20510;-44
2023/11/25 00:37:46;;;;;;;15.98;2.60;;;;;;;9.05;64.35;101523.16;5012938;28;20033;-47
2023/11/25 00:40:14;;;;;;;23.55;2.58;;;;;;;8.91;64.64;101525.34;5012206;28;20046;-47
2023/11/25 00:42:41;;;;;;;21.02;2.80;;;;;;;8.67;65.39;101530.66;5013125;28;20030;-50
2023/11/25 00:45:09;;;;;;;23.30;3.25;;;;;;;8.98;64.08;101532.50;5012537;28;20045;-51
2023/11/25 00:47:36;;;;;;;23.33;2.40;;;;;;;8.94;63.59;101521.13;5012458;28;20503;-49
2023/11/25 00:50:01;;;;;;;21.73;2.40;;;;;;;9.01;63.77;101522.19;5012699;28;20124;-46
2023/11/25 00:52:27;;;;;;;20.48;2.50;;;;;;;8.99;63.07;101523.84;5012765;28;20270;-48
2023/11/25 00:54:53;;;;;;;20.50;2.60;;;;;;;9.01;63.08;101522.19;5013254;28;20037;-46
2023/11/25 00:57:18;;;;;;;16.73;2.53;;;;;;;9.11;62.14;101529.44;5013311;28;20599;-44
2023/11/25 00:59:44;;;;;;;23.58;2.55;;;;;;;9.25;62.30;101530.72;5013476;28;20149;-45
2023/11/25 01:02:09;;;;;;;29.20;3.40;;;;;;;9.45;62.05;101522.59;5012681;28;20038;-47
2023/11/25 01:04:34;;;;;;;19.98;2.42;;;;;;;9.59;60.64;101526.47;5014894;28;20033;-44
2023/11/25 01:07:00;;;;;;;20.33;2.90;;;;;;;9.74;61.19;101522.56;5015853;28;20492;-48
2023/11/25 01:09:28;;;;;;;19.65;2.70;;;;;;;9.16;61.13;101529.56;5013005;28;20041;-52
2023/11/25 01:11:56;;;;;;;20.83;2.15;;;;;;;9.82;60.77;101527.97;5013997;28;20030;-48
2023/11/25 01:14:21;;;;;;;18.20;2.42;;;;;;;10.39;58.42;101536.44;5012239;28;20038;-50
2023/11/25 01:16:49;;;;;;;21.75;2.75;;;;;;;10.16;58.61;101534.94;5012505;28;20105;-47
2023/11/25 01:19:14;;;;;;;21.10;2.47;;;;;;;9.99;56.96;101539.72;5009901;28;20092;-46
2023/11/25 01:21:40;;;;;;;24.08;2.75;;;;;;;9.97;57.54;101535.31;5012676;28;20034;-50
2023/11/25 01:24:07;;;;;;;14.70;2.15;;;;;;;10.06;55.66;101535.56;5012533;28;20041;-46
2023/11/25 01:26:32;;;;;;;19.75;2.17;;;;;;;10.28;54.68;101542.22;5012225;28;20034;-49
2023/11/25 01:28:57;;;;;;;18.50;2.17;;;;;;;10.35;54.03;101536.31;5012587;28;20037;-47
2023/11/25 01:31:22;;;;;;;11.80;1.70;;;;;;;10.37;54.77;101538.09;5012152;28;20107;-49
2023/11/25 01:33:48;;;;;;;20.08;3.17;;;;;;;10.30;54.46;101543.16;5012406;28;20468;-49
2023/11/25 01:36:13;;;;;;;16.73;2.08;;;;;;;10.30;55.05;101543.16;5011960;28;20057;-44
2023/11/25 01:38:39;;;;;;;16.05;2.80;;;;;;;10.32;53.80;101549.25;5012270;28;20040;-48
2023/11/25 01:41:06;;;;;;;17.00;2.25;;;;;;;10.61;52.74;101544.78;5012427;28;20121;-45
2023/11/25 01:43:32;;;;;;;19.42;1.80;;;;;;;10.61;53.31;101543.06;5012474;28;20038;-46
2023/11/25 01:45:59;;;;;;;16.38;2.15;;;;;;;10.28;54.22;101543.09;5013283;28;20102;-46
2023/11/25 01:48:26;;;;;;;17.52;2.30;;;;;;;10.16;54.42;101546.28;5011313;28;20065;-49
2023/11/25 01:50:52;;;;;;;18.45;2.38;;;;;;;10.63;52.98;101538.75;5011685;28;20030;-49
2023/11/25 01:53:21;;;;;;;15.02;2.08;;;;;;;10.13;53.57;101551.38;5011442;28;20048;-54
2023/11/25 01:55:50;;;;;;;16.17;2.33;;;;;;;9.74;53.39;101539.91;5010976;28;20495;-47
2023/11/25 01:58:17;;;;;;;16.40;2.53;;;;;;;9.57;54.56;101548.97;5010787;28;20088;-52
2023/11/25 02:00:47;;;;;;;10.32;1.80;;;;;;;10.15;55.00;101552.31;5011735;28;20049;-46
2023/11/25 02:03:16;;;;;;;15.88;2.00;;;;;;;9.90;55.99;101543.78;5011172;28;20041;-46
2023/11/25 02:05:45;;;;;;;13.63;1.80;;;;;;;9.74;51.93;101545.13;5011515;28;20060;-46
2023/11/25 02:08:11;;;;;;;13.07;1.50;;;;;;;10.28;49.86;101548.31;5011299;28;20389;-46
2023/11/25 02:10:37;;;;;;;10.55;1.48;;;;;;;10.02;50.35;101539.78;5012213;28;20034;-46
2023/11/25 02:13:03;;;;;;;11.27;1.40;;;;;;;10.37;49.54;101547.69;5011733;28;20033;-49
2023/11/25 02:15:30;;;;;;;7.90;1.40;;;;;;;10.16;50.71;101533.25;5011447;28;20077;-52
2023/11/25 02:17:55;;;;;;;10.55;1.77;;;;;;;10.26;51.88;101536.97;5011977;28;20042;-45
2023/11/25 02:20:40;;;;;;;17.30;2.13;;;;;;;9.87;52.07;101534.19;5011532;28;20413;-48
2023/11/25 02:23:16;;;;;;;14.90;1.92;;;;;;;9.91;52.71;101529.94;5026912;28;20500;-48
2023/11/25 02:25:48;;;;;;;18.77;2.22;;;;;;;10.18;51.90;101533.31;5011130;28;20038;-45
2023/11/25 02:28:14;;;;;;;12.35;2.00;;;;;;;9.95;52.55;101529.16;5011228;28;20195;-46
2023/11/25 02:30:40;;;;;;;18.33;2.25;;;;;;;9.88;53.24;101524.66;5011762;28;20152;-47
2023/11/25 02:33:08;;;;;;;12.88;1.85;;;;;;;9.96;52.93;101531.81;5010487;28;20061;-45
2023/11/25 02:35:34;;;;;;;17.30;2.00;;;;;;;10.13;52.28;101524.44;5010589;28;20437;-47
2023/11/25 02:38:00;;;;;;;14.20;1.98;;;;;;;10.35;52.55;101518.09;5010907;28;20048;-49
2023/11/25 02:40:25;;;;;;;17.08;1.90;;;;;;;9.81;53.10;101518.41;5010273;28;20034;-50
2023/11/25 02:42:50;;;;;;;18.95;2.15;;;;;;;9.90;52.47;101523.84;5010922;28;20026;-46
2023/11/25 02:45:22;;;;;;;14.07;1.85;;;;;;;10.04;52.44;101530.31;5009847;28;20048;-48
2023/11/25 02:47:48;;;;;;;16.25;1.70;;;;;;;10.13;51.67;101537.47;5010648;28;20033;-50
2023/11/25 02:50:14;;;;;;;12.20;2.22;;;;;;;10.04;52.10;101522.50;5009614;28;20063;-50
2023/11/25 02:52:40;;;;;;;15.18;1.80;;;;;;;10.31;50.73;101511.91;5011130;28;20117;-45
2023/11/25 02:55:07;;;;;;;13.40;1.65;;;;;;;10.16;50.86;101520.22;5011456;28;20480;-44
2023/11/25 02:57:32;;;;;;;13.98;1.92;;;;;;;9.88;50.88;101511.66;5011376;28;20442;-44
2023/11/25 03:00:07;;;;;;;14.65;1.75;;;;;;;10.58;49.87;101519.50;5011827;28;20050;-46
2023/11/25 03:02:33;;;;;;;17.00;2.08;;;;;;;10.45;50.29;101514.84;5010007;28;20030;-49
2023/11/25 03:05:00;;;;;;;18.42;1.83;;;;;;;10.53;50.01;101524.63;5010191;28;20041;-49
2023/11/25 03:07:25;;;;;;;10.75;1.52;;;;;;;10.51;50.40;101518.47;5009433;28;20038;-47
2023/11/25 03:09:50;;;;;;;10.88;1.77;;;;;;;10.56;49.94;101510.75;5009922;28;20124;-53
2023/11/25 03:12:15;;;;;;;12.02;1.60;;;;;;;10.13;51.53;101508.81;5010146;28;20063;-45
2023/11/25 03:14:42;;;;;;;17.67;1.88;;;;;;;10.26;52.66;101505.69;5009955;28;20109;-48
2023/11/25 03:17:08;;;;;;;18.60;2.28;;;;;;;10.41;52.97;101493.06;5009947;28;20029;-48
2023/11/25 03:19:34;;;;;;;16.40;1.77;;;;;;;10.53;52.97;101495.06;5009943;28;20053;-46
2023/11/25 03:22:00;;;;;;;22.30;2.50;;;;;;;10.55;53.84;101496.84;5010083;28;20076;-52
2023/11/25 03:24:26;;;;;;;14.20;1.73;;;;;;;10.67;53.74;101498.88;5009712;28;20057;-47
2023/11/25 03:26:51;;;;;;;15.93;2.10;;;;;;;10.35;54.83;101512.88;5008927;28;20053;-50
2023/11/25 03:29:18;;;;;;;16.70;2.40;;;;;;;10.20;57.51;101504.66;5009674;28;20029;-46
2023/11/25 03:31:44;;;;;;;16.67;2.47;;;;;;;9.41;59.84;101510.34;5010735;28;20440;-47
2023/11/25 03:34:10;;;;;;;17.98;1.83;;;;;;;9.39;61.06;101512.03;5009714;28;20514;-47
2023/11/25 03:36:36;;;;;;;19.75;1.77;;;;;;;9.76;61.04;101513.06;5010338;28;20077;-45
2023/11/25 03:39:01;;;;;;;11.75;1.88;;;;;;;9.91;61.90;101523.00;5010158;28;20034;-45
2023/11/25 03:41:28;;;;;;;12.57;1.40;;;;;;;9.35;65.54;101511.03;5009591;28;20165;-43
2023/11/25 03:43:53;;;;;;;13.32;1.70;;;;;;;9.15;67.59;101512.22;5014014;28;20131;-45
2023/11/25 03:46:19;;;;;;;16.45;1.75;;;;;;;9.26;66.69;101508.19;5012226;28;20096;-46
2023/11/25 03:48:44;;;;;;;8.93;1.30;;;;;;;9.36;66.39;101503.28;5013824;28;20056;-51
2023/11/25 03:51:10;;;;;;;13.80;1.38;;;;;;;9.77;64.26;101503.53;5013363;28;20112;-44
2023/11/25 03:53:36;;;;;;;9.70;1.30;;;;;;;9.80;64.77;101502.75;5013655;28;20032;-48
2023/11/25 03:56:01;;;;;;;11.77;1.73;;;;;;;9.69;65.49;101515.47;5013610;28;20642;-46
2023/11/25 03:58:27;;;;;;;8.65;1.25;;;;;;;9.11;67.79;101539.84;5013050;28;20045;-50
2023/11/25 04:00:52;;;;;;;8.35;1.40;;;;;;;9.04;66.61;101550.00;5013714;28;20050;-49
2023/11/25 04:03:18;;;;;;;6.18;0.70;;;;;;;9.26;64.41;101540.31;5011892;28;20034;-46
2023/11/25 04:05:43;;;;;;;5.80;0.77;;;;;;;9.23;65.36;101566.22;5013577;28;20499;-44
2023/11/25 04:08:08;;;;;;;8.07;0.95;;;;;;;9.58;64.60;101550.72;5013656;28;20141;-44
2023/11/25 04:10:34;;;;;;;4.57;0.80;;;;;;;9.04;67.05;101544.78;5013395;28;20416;-46
2023/11/25 04:12:59;;;;;;;5.13;0.95;;;;;;;9.07;67.56;101529.31;5012617;28;20034;-47
2023/11/25 04:15:24;;;;;;;9.15;1.13;;;;;;;8.66;68.71;101517.66;5012779;28;20037;-45
2023/11/25 04:17:50;;;;;;;10.73;1.20;;;;;;;8.46;69.31;101522.19;5015230;28;20060;-46
2023/11/25 04:20:24;;;;;;;10.10;1.42;;;;;;;8.54;69.82;101520.72;5014026;28;20057;-48
2023/11/25 04:22:49;;;;;;;7.47;0.90;;;;;;;8.84;68.38;101523.41;5013820;28;20117;-46
2023/11/25 04:25:16;;;;;;;8.13;1.17;;;;;;;8.83;68.44;101527.72;5012958;28;20054;-45
2023/11/25 04:27:48;;;;;;;9.15;1.20;;;;;;;8.68;69.62;101540.22;5013182;28;20113;-47
2023/11/25 04:30:16;;;;;;;9.70;1.15;;;;;;;9.21;68.82;101513.25;5013406;28;20038;-49
2023/11/25 04:32:43;;;;;;;5.75;1.13;;;;;;;8.83;69.72;101513.84;5013535;28;20400;-44
2023/11/25 04:35:08;;;;;;;10.77;1.20;;;;;;;9.00;70.23;101504.81;5012433;28;20057;-50
2023/11/25 04:37:34;;;;;;;8.05;1.00;;;;;;;9.09;70.12;101499.03;5013208;28;20068;-47
2023/11/25 04:40:01;;;;;;;9.00;1.00;;;;;;;9.47;68.86;101506.19;5013074;28;20041;-48
2023/11/25 04:42:26;;;;;;;10.65;1.10;;;;;;;9.32;69.50;101496.25;5012457;28;20042;-47
2023/11/25 04:44:51;;;;;;;9.13;1.00;;;;;;;9.51;68.68;101496.75;5013373;28;20042;-45
2023/11/25 04:47:17;;;;;;;7.03;1.02;;;;;;;9.64;67.45;101497.09;5013441;28;20065;-48
2023/11/25 04:49:42;;;;;;;14.65;1.25;;;;;;;9.30;69.14;101497.91;5013569;28;20048;-44
2023/11/25 04:52:07;;;;;;;13.05;1.70;;;;;;;9.48;69.39;101500.13;5013567;28;20038;-44
2023/11/25 04:54:33;;;;;;;9.68;1.05;;;;;;;9.43;69.25;101506.94;5012863;28;20438;-45
2023/11/25 04:56:59;;;;;;;7.20;1.13;;;;;;;9.66;68.01;101503.25;5012680;28;20271;-46
2023/11/25 04:59:24;;;;;;;9.23;1.25;;;;;;;9.70;67.03;101501.59;5012580;28;20196;-46
2023/11/25 05:01:50;;;;;;;9.05;1.30;;;;;;;9.59;67.88;101501.31;5012988;28;20042;-46
2023/11/25 05:04:15;;;;;;;17.15;1.40;;;;;;;9.13;70.37;101500.88;5011272;28;20088;-45
2023/11/25 05:06:41;;;;;;;15.82;1.35;;;;;;;9.30;69.75;101487.50;5012947;28;20042;-44
2023/11/25 05:09:06;;;;;;;15.25;1.40;;;;;;;9.29;69.80;101488.34;5012419;28;20044;-47
2023/11/25 05:11:32;;;;;;;19.73;1.92;;;;;;;9.06;69.98;101475.50;5014273;28;20038;-49
2023/11/25 05:14:02;;;;;;;21.25;1.75;;;;;;;8.91;68.53;101475.94;5013929;28;20030;-44
2023/11/25 05:16:27;;;;;;;14.82;1.30;;;;;;;9.08;66.89;101481.66;5013765;28;20089;-44
2023/11/25 05:18:52;;;;;;;11.48;1.83;;;;;;;9.33;66.14;101486.72;5012441;28;20042;-49
2023/11/25 05:21:18;;;;;;;14.70;1.85;;;;;;;9.63;65.02;101479.75;5012053;28;20073;-49
2023/11/25 05:23:43;;;;;;;6.45;1.60;;;;;;;9.61;62.52;101471.00;5013213;28;20030;-46
2023/11/25 05:26:08;;;;;;;9.73;1.27;;;;;;;9.92;60.03;101490.91;5011822;28;20038;-51
2023/11/25 05:28:34;;;;;;;7.00;0.80;;;;;;;9.81;60.74;101500.19;5012548;28;20030;-44
2023/11/25 05:30:59;;;;;;;9.00;1.15;;;;;;;9.05;63.19;101518.84;5012175;28;20380;-45
2023/11/25 05:33:25;;;;;;;8.23;1.00;;;;;;;9.11;67.78;101513.81;5011827;28;20042;-48
2023/11/25 05:35:50;;;;;;;5.43;0.70;;;;;;;8.87;68.03;101505.28;5013193;28;20431;-44
2023/11/25 05:38:18;;;;;;;4.47;0.90;;;;;;;8.86;68.88;101501.81;5012405;28;20050;-48
2023/11/25 05:40:43;;;;;;;10.43;1.00;;;;;;;9.06;68.93;101493.72;5012433;28;20143;-50
2023/11/25 05:43:09;;;;;;;9.38;0.80;;;;;;;8.87;69.12;101484.50;5011377;28;20034;-45
2023/11/25 05:45:38;;;;;;;6.65;1.15;;;;;;;8.83;69.57;101483.53;5011828;28;20037;-45
2023/11/25 05:48:04;;;;;;;7.05;0.93;;;;;;;9.01;68.64;101471.91;5011908;28;20096;-47
2023/11/25 05:50:29;;;;;;;6.07;1.00;;;;;;;8.68;68.95;101463.97;5011320;28;20045;-45
2023/11/25 05:52:56;;;;;;;8.15;1.30;;;;;;;8.70;68.66;101468.38;5011660;28;20127;-44
2023/11/25 05:55:21;;;;;;;12.13;1.15;;;;;;;9.10;67.19;101464.34;5011124;28;20049;-44
2023/11/25 05:57:50;;;;;;;7.38;1.00;;;;;;;9.18;66.67;101461.13;5013081;28;20041;-44
2023/11/25 06:00:15;;;;;;;9.05;1.10;;;;;;;8.94;67.15;101452.63;5011608;28;20033;-44
2023/11/25 06:02:41;;;;;;;11.27;1.30;;;;;;;9.06;66.48;101453.00;5012517;28;20506;-46
2023/11/25 06:05:08;;;;;;;12.00;1.00;;;;;;;9.11;66.35;101453.09;5012249;28;20034;-46
2023/11/25 06:07:34;;;;;;;11.15;1.25;;;;;;;8.92;66.03;101451.69;5011074;28;20030;-45
2023/11/25 06:10:00;;;;;;;8.85;1.10;;;;;;;9.02;66.59;101443.34;5009990;28;20044;-45
2023/11/25 06:12:26;;;;;;;10.40;1.00;;;;;;;9.57;64.97;101440.53;5010828;28;20034;-44
2023/11/25 06:14:55;;;;;;;5.72;1.05;;;;;;;9.62;64.77;101451.06;5011378;28;20084;-44
2023/11/25 06:17:21;;;;;;;13.15;1.30;;;;;;;9.82;64.92;101438.56;5010439;28;20045;-45
2023/11/25 06:19:48;;;;;;;10.18;1.30;;;;;;;10.06;64.05;101431.38;5009786;28;20030;-46
2023/11/25 06:22:13;;;;;;;8.43;1.50;;;;;;;10.11;63.80;101433.22;5010927;28;20038;-46
2023/11/25 06:24:40;;;;;;;8.98;1.40;;;;;;;10.06;64.99;101458.25;5011090;28;20053;-51
2023/11/25 06:27:05;;;;;;;11.20;1.45;;;;;;;9.71;66.15;101478.22;5011057;28;20045;-49
2023/11/25 06:29:31;;;;;;;10.45;1.08;;;;;;;8.96;68.90;101476.97;5010240;28;20037;-47
2023/11/25 06:31:56;;;;;;;11.55;1.63;;;;;;;9.17;68.20;101448.97;5010591;28;20056;-46
2023/11/25 06:34:21;;;;;;;6.25;1.30;;;;;;;9.34;67.96;101446.81;5010183;28;20420;-50
2023/11/25 06:36:47;;;;;;;11.00;1.10;;;;;;;9.24;68.54;101450.91;5010468;28;20030;-46
2023/11/25 06:39:14;;;;;;;11.07;1.50;;;;;;;8.93;70.31;101449.16;5009969;28;20462;-45
2023/11/25 06:41:44;;;;;;;14.52;1.88;;;;;;;8.93;70.13;101437.88;5010516;28;20516;-44
2023/11/25 06:44:10;;;;;;;10.68;1.40;;;;;;;8.96;70.23;101440.56;5009967;28;20120;-46
2023/11/25 06:46:35;;;;;;;13.10;1.95;;;;;;;9.02;69.82;101438.16;5010423;28;20058;-46
2023/11/25 06:49:00;;;;;;;15.10;1.85;;;;;;;8.90;67.57;101438.66;5010676;28;20058;-47
2023/11/25 06:51:26;;;;;;;9.40;1.05;;;;;;;9.22;66.36;101429.16;5010107;28;20044;-46
2023/11/25 06:53:51;;;;;;;10.48;0.95;;;;;;;9.34;65.79;101439.91;5009350;28;20037;-45
2023/11/25 06:56:16;;;;;;;12.32;1.25;;;;;;;9.50;65.16;101435.13;5010446;28;20077;-51
2023/11/25 06:58:42;;;;;;;7.03;1.10;;;;;;;9.47;65.25;101440.22;5010929;28;20108;-45
2023/11/25 07:01:07;;;;;;;19.85;1.67;;;;;;;9.59;64.03;101430.13;5010057;28;20045;-45
2023/11/25 07:03:33;;;;;;;8.05;1.20;;;;;;;10.04;63.45;101436.53;5010482;28;20544;-50
2023/11/25 07:05:58;;;;;;;9.52;1.17;;;;;;;9.83;63.88;101432.50;5010063;28;20053;-45
2023/11/25 07:08:26;;;;;;;12.02;1.52;;;;;;;10.28;63.26;101443.19;5008145;28;20045;-49
2023/11/25 07:10:54;;;;;;;11.15;1.80;;;;;;;10.13;64.86;101459.28;5010333;28;20447;-48
2023/11/25 07:13:21;;;;;;;12.93;1.90;;;;;;;9.81;65.23;101468.94;5009675;28;20037;-46
2023/11/25 07:15:47;;;;;;;11.02;1.60;;;;;;;9.60;66.41;101456.22;5010191;28;20053;-48
2023/11/25 07:18:12;;;;;;;10.50;1.80;;;;;;;10.13;65.42;101456.69;5009235;28;20038;-46
2023/11/25 07:20:39;;;;;;;10.93;1.42;;;;;;;9.72;66.58;101445.25;5009991;28;20491;-49
2023/11/25 07:23:04;;;;;;;16.77;1.88;;;;;;;9.96;66.72;101444.97;5010129;28;20034;-50
2023/11/25 07:25:32;;;;;;;16.70;1.60;;;;;;;9.78;66.28;101448.88;5009572;28;20414;-49
2023/11/25 07:27:57;;;;;;;14.80;1.60;;;;;;;9.55;67.11;101452.63;5009927;28;20503;-45
2023/11/25 07:30:22;;;;;;;15.18;1.73;;;;;;;9.78;66.68;101443.69;5009383;28;20189;-46
2023/11/25 07:32:48;;;;;;;14.18;1.50;;;;;;;9.75;66.18;101453.16;5010212;28;20511;-49
2023/11/25 07:35:13;;;;;;;16.05;1.65;;;;;;;9.97;65.44;101454.56;5009883;28;20030;-44
2023/11/25 07:37:39;;;;;;;9.27;1.33;;;;;;;9.98;64.72;101449.41;5010129;28;20045;-45
2023/11/25 07:40:15;;;;;;;5.95;1.00;;;;;;;10.03;63.28;101450.38;5009525;28;20042;-46
2023/11/25 07:42:48;;;;;;;5.78;1.13;;;;;;;10.28;62.12;101451.00;5009657;28;20034;-50
2023/11/25 07:45:13;;;;;;;6.82;0.90;;;;;;;10.05;61.37;101451.31;5009276;28;20042;-46
2023/11/25 07:47:40;;;;;;;5.57;1.00;;;;;;;9.99;60.14;101445.97;5010030;28;20033;-52
2023/11/25 07:50:05;;;;;;;6.13;0.90;;;;;;;10.22;60.05;101454.34;5009743;28;20492;-48
2023/11/25 07:52:31;;;;;;;9.15;1.20;;;;;;;9.99;60.54;101451.16;5008049;28;20026;-49
2023/11/25 07:54:56;;;;;;;7.00;1.10;;;;;;;10.02;62.55;101451.22;5009838;28;20507;-46
2023/11/25 07:57:22;;;;;;;9.35;1.30;;;;;;;10.28;61.55;101443.19;5009312;28;20456;-48
2023/11/25 07:59:47;;;;;;;7.63;1.40;;;;;;;10.57;61.95;101434.31;5009532;28;20523;-47
2023/11/25 08:02:13;;;;;;;9.52;1.98;;;;;;;10.14;61.73;101448.03;5009458;28;20041;-44
2023/11/25 08:04:38;;;;;;;7.70;1.17;;;;;;;9.71;61.66;101440.88;5009840;28;20038;-48
2023/11/25 08:07:05;;;;;;;6.90;0.90;;;;;;;10.45;59.60;101436.66;5010034;28;20034;-48
2023/11/25 08:09:32;;;;;;;9.98;1.27;;;;;;;9.82;61.56;101443.78;5009323;28;20038;-46
2023/11/25 08:11:58;;;;;;;7.13;1.13;;;;;;;9.97;61.76;101445.03;5009631;28;20037;-51
2023/11/25 08:14:23;;;;;;;8.82;1.30;;;;;;;9.73;61.73;101445.28;5009010;28;20033;-46
2023/11/25 08:16:49;;;;;;;10.55;1.20;;;;;;;10.48;60.34;101468.00;5009510;28;20041;-47
2023/11/25 08:19:16;;;;;;;10.55;1.50;;;;;;;10.07;61.38;101470.44;5008676;28;20030;-47
2023/11/25 08:21:41;;;;;;;8.60;1.30;;;;;;;10.31;60.92;101457.16;5009735;28;20038;-46
2023/11/25 08:24:07;;;;;;;8.13;1.10;;;;;;;10.67;59.42;101461.50;5010413;28;20042;-46
2023/11/25 08:26:34;;;;;;;8.85;1.27;;;;;;;10.66;60.18;101450.19;5009708;28;20116;-44
2023/11/25 08:29:02;;;;;;;9.57;1.10;;;;;;;10.53;60.96;101458.56;5010698;28;20041;-45
2023/11/25 08:31:28;;;;;;;5.25;1.23;;;;;;;9.86;65.38;101451.69;5013818;28;20049;-47
2023/11/25 08:33:53;;;;;;;12.07;1.25;;;;;;;10.31;63.79;101466.72;5014006;28;20042;-48
2023/11/25 08:36:20;;;;;;;10.35;1.40;;;;;;;9.78;66.01;101461.91;5014641;28;20088;-49
2023/11/25 08:38:45;;;;;;;10.13;1.20;;;;;;;9.08;65.16;101460.84;5014492;28;20099;-48
2023/11/25 08:41:10;;;;;;;9.95;1.10;;;;;;;9.51;64.88;101463.81;5014388;28;20515;-45
2023/11/25 08:43:43;;;;;;;8.40;1.10;;;;;;;9.52;64.54;101457.72;5015205;28;20022;-48
2023/11/25 08:46:09;;;;;;;10.23;1.90;;;;;;;9.92;63.97;101458.78;5013865;28;20100;-43
2023/11/25 08:48:34;;;;;;;11.57;1.20;;;;;;;9.79;64.40;101465.41;5014189;28;20698;-45
2023/11/25 08:51:00;;;;;;;10.75;1.20;;;;;;;10.09;63.27;101455.75;5018929;28;20038;-50
2023/11/25 08:53:27;;;;;;;8.85;1.05;;;;;;;10.15;62.53;101458.50;5021484;28;20030;-50
2023/11/25 08:55:53;;;;;;;7.22;0.90;;;;;;;10.37;62.41;101449.50;5012913;28;20049;-48
2023/11/25 08:58:18;;;;;;;6.20;1.35;;;;;;;10.62;61.71;101448.31;5011890;28;20034;-49
2023/11/25 09:00:44;;;;;;;11.05;1.30;;;;;;;10.16;62.98;101447.28;5013149;28;20033;-49
2023/11/25 09:03:10;;;;;;;8.15;1.42;;;;;;;10.69;61.31;101445.00;5012313;28;20116;-46
2023/11/25 09:05:40;;;;;;;17.10;2.00;;;;;;;10.38;62.43;101461.69;5012521;28;20074;-47
2023/11/25 09:08:08;;;;;;;13.93;1.60;;;;;;;10.36;63.97;101476.44;5012883;28;20057;-45
2023/11/25 09:10:34;;;;;;;13.18;1.63;;;;;;;10.16;63.46;101462.00;5012843;28;20053;-45
2023/11/25 09:13:02;;;;;;;19.27;1.88;;;;;;;10.08;63.70;101467.00;5013478;28;20049;-45
2023/11/25 09:15:28;;;;;;;8.90;1.33;;;;;;;10.53;62.83;101467.25;5013617;28;20063;-48
2023/11/25 09:17:53;;;;;;;12.65;1.60;;;;;;;10.48;61.73;101470.63;5014056;28;20154;-45
2023/11/25 09:20:20;;;;;;;12.75;1.48;;;;;;;10.47;59.60;101463.63;5012146;28;20029;-44
2023/11/25 09:22:46;;;;;;;7.38;1.50;;;;;;;10.49;58.70;101456.75;5012223;28;20072;-47
2023/11/25 09:25:12;;;;;;;9.93;1.10;;;;;;;10.64;58.02;101466.63;5012049;28;20061;-47
2023/11/25 09:27:39;;;;;;;9.68;1.25;;;;;;;10.92;57.95;101461.16;5012153;28;20034;-50
2023/11/25 09:30:05;;;;;;;8.27;1.40;;;;;;;11.01;57.13;101448.31;5011855;28;20041;-47
2023/11/25 09:32:31;;;;;;;8.73;1.27;;;;;;;10.82;56.26;101462.69;5011280;28;20129;-45
2023/11/25 09:34:57;;;;;;;11.18;1.30;;;;;;;10.90;55.86;101462.88;5012574;28;20061;-48
2023/11/25 09:37:22;;;;;;;12.07;1.60;;;;;;;10.84;55.98;101463.63;5010073;28;20562;-45
2023/11/25 09:39:48;;;;;;;11.20;1.38;;;;;;;10.90;54.56;101473.28;5011215;28;20068;-46
2023/11/25 09:42:13;;;;;;;10.77;1.30;;;;;;;10.91;55.07;101467.25;5011204;28;20495;-48
2023/11/25 09:44:40;;;;;;;10.15;1.33;;;;;;;11.05;56.32;101467.50;5011555;28;20190;-45
2023/11/25 09:47:05;;;;;;;12.32;1.60;;;;;;;11.44;57.19;101470.03;5011404;28;20054;-44
2023/11/25 09:49:31;;;;;;;12.38;1.58;;;;;;;10.77;58.29;101482.59;5011110;28;20042;-46
2023/11/25 09:52:04;;;;;;;8.27;1.20;;;;;;;10.38;57.50;101479.03;5011935;28;20045;-46
2023/11/25 09:54:31;;;;;;;7.05;1.00;;;;;;;10.46;58.40;101483.59;5012038;28;20022;-44
2023/11/25 09:56:57;;;;;;;6.35;1.13;;;;;;;10.14;60.66;101476.69;5013407;28;20048;-44
2023/11/25 09:59:23;;;;;;;8.80;1.00;;;;;;;9.97;62.79;101483.22;5012317;28;20101;-45
2023/11/25 10:01:49;;;;;;;6.05;0.95;;;;;;;10.36;62.55;101488.56;5013132;28;20109;-46
2023/11/25 10:04:15;;;;;;;8.68;1.30;;;;;;;10.25;61.82;101490.00;5012209;28;20102;-48
2023/11/25 10:06:41;;;;;;;7.65;1.40;;;;;;;10.37;61.49;101469.50;5012447;28;20038;-50
2023/11/25 10:09:09;;;;;;;10.68;1.90;;;;;;;10.43;60.49;101493.94;5014358;28;20120;-46
2023/11/25 10:11:35;;;;;;;8.63;1.40;;;;;;;10.38;60.15;101486.88;5011696;28;20088;-51
2023/11/25 10:14:03;;;;;;;8.60;1.08;;;;;;;10.22;61.25;101487.34;5011910;28;20033;-45
2023/11/25 10:16:29;;;;;;;8.80;1.58;;;;;;;10.71;60.44;101472.00;5011305;28;20034;-50
2023/11/25 10:18:56;;;;;;;7.65;1.33;;;;;;;11.10;59.94;101466.75;5011492;28;20104;-45
2023/11/25 10:21:22;;;;;;;13.95;1.90;;;;;;;10.86;61.34;101469.72;5011288;28;20072;-51
2023/11/25 10:23:50;;;;;;;11.57;1.70;;;;;;;10.80;61.45;101472.19;5012164;28;20414;-49
2023/11/25 10:26:18;;;;;;;10.23;1.65;;;;;;;10.77;61.92;101461.72;5011012;28;20040;-47
2023/11/25 10:28:45;;;;;;;13.88;1.90;;;;;;;10.90;60.39;101466.34;5012157;28;20552;-43
2023/11/25 10:31:14;;;;;;;8.68;1.70;;;;;;;10.94;60.39;101465.56;5011332;28;20040;-44
2023/11/25 10:33:40;;;;;;;17.00;1.77;;;;;;;11.33;58.54;101462.91;5011328;28;20523;-45
2023/11/25 10:36:06;;;;;;;15.38;1.77;;;;;;;11.55;58.57;101460.69;5011403;28;20042;-48
2023/11/25 10:38:31;;;;;;;11.43;1.70;;;;;;;11.44;58.78;101457.88;5010075;28;20029;-45
2023/11/25 10:40:59;;;;;;;17.02;2.03;;;;;;;11.31;58.78;101446.31;5010845;28;20041;-47
2023/11/25 10:43:25;;;;;;;16.30;2.17;;;;;;;11.54;58.31;101451.97;5010040;28;20053;-45
2023/11/25 10:46:01;;;;;;;15.20;1.77;;;;;;;11.31;55.95;101445.44;5010753;28;20034;-48
2023/11/25 10:48:27;;;;;;;10.68;1.73;;;;;;;11.11;57.10;101446.75;5009840;28;20026;-51
2023/11/25 10:50:53;;;;;;;12.73;2.13;;;;;;;11.83;56.82;101451.66;5010496;28;20029;-50
2023/11/25 10:53:19;;;;;;;18.92;2.20;;;;;;;12.25;55.61;101449.75;5009334;28;20037;-47
2023/11/25 10:55:47;;;;;;;11.43;2.00;;;;;;;11.72;54.81;101447.06;5010185;28;20120;-49
2023/11/25 10:58:15;;;;;;;14.30;1.73;;;;;;;12.10;54.57;101457.34;5010016;28;20034;-46
2023/11/25 11:00:40;;;;;;;12.70;2.30;;;;;;;11.89;54.11;101460.50;5010709;28;20390;-45
2023/11/25 11:03:09;;;;;;;20.92;3.33;;;;;;;12.66;54.78;101452.97;5010245;28;20109;-46
2023/11/25 11:05:42;;;;;;;20.30;2.47;;;;;;;12.54;56.36;101456.31;5008470;28;20407;-45
2023/11/25 11:08:16;;;;;;;15.55;1.98;;;;;;;13.24;54.93;101461.59;5010555;28;20133;-45
2023/11/25 11:10:53;;;;;;;15.05;1.73;;;;;;;11.74;58.59;101475.88;5009662;28;20026;-50
2023/11/25 11:13:25;;;;;;;11.57;1.63;;;;;;;11.34;62.40;101453.34;5009537;28;20038;-48
2023/11/25 11:15:54;;;;;;;13.02;2.03;;;;;;;10.60;64.61;101464.81;5010287;28;20045;-46
2023/11/25 11:18:26;;;;;;;21.52;2.50;;;;;;;10.18;68.41;101478.59;5009277;28;20120;-49
2023/11/25 11:20:54;;;;;;;13.50;1.85;;;;;;;9.45;70.11;101483.56;5008732;28;20499;-46